Strona główna
METAR-TAF:

METAR-TAF

Lotnisko :

Port lotniczy Helsinki-Vantaa

Helsinki, Finlandia

Szerokość geograficzna: 60-19N, Długość geograficzna: 024-58E, wysokość: 51 m

Aktualna obserwacja pogody

Raport powstał 27 minut temu, godzina 00:50 UTC
Wiatr 2 kt od wschodnio-północny wschód
Temperatura 6°C
Wilgotność 93%
Ciśnienie 1022 hPa
Widzialność 10 km lub więcej
Brak chmur poniżej 1500 m i brak chmur cumulonimbus

METAR: EFHK 180050Z 07002KT CAVOK 06/05 Q1022 NOSIG

czas: 04:17 (01:17 UTC)

Prognoza

Raport powstał 1 godzina i 53 minut temu, godzina 23:24 UTC
Prognoza ważna od 18 godzina 00 UTC do 18 godzina 24 UTC
Wiatr 2 kt od wschód
Widzialność 10 km lub więcej
Brak chmur poniżej 1500 m i brak chmur cumulonimbus
Stopniowe zmiany
od 18 godzina 08 UTC do 18 godzina 10 UTC
Wiatr 10 kt od południowy wschód
Stopniowe zmiany
od 18 godzina 22 UTC do 18 godzina 24 UTC
Wiatr 2 kt z kierunków zmiennych

TAF: EFHK 172324Z 1800/1824 08002KT CAVOK BECMG 1808/1810 14010KT BECMG 1822/1824 VRB02KT

Obserwacja i prognoza pogody dla ponad 4000 lotnisk (raport METAR i TAF).

Dostępne stacje oznaczono żółtymi i czerwonymi punktami na mapie.

Najedź kursorem aby zobaczyć nazwę stacji.

Kliknij aby zobaczyć obserwacje i prognozy pogody.

Aby zmienić mapę: kliknij na zielony przycisk z czarnym krzyżykiem, aby powiększyć; na zielony przycisk z myślnikiem, aby pomniejszyć; na zielone strzałki, aby przejść do map sąsiednich.


METAR-TAF: